KSUU/SUU METAR and TAF weather

Enter ICAO airport designator
Station Type Date Time Source
KSUU METAR 2018/12/17 02:03 UTC NOAA

KSUU 170203Z AUTO 11004KT 5SM -RA BR BKN021 OVC075 11/11 A3003 RMK AO2 CIG 021V075 BKN V SCT CIG 016 RWY03L SLP176 $


Station Type Date Time Source
KSUU Decoded METAR 2018/12/17 02:03 UTC NOAA

Fairfield / Travis Air Force Base, CA, United States (KSUU) 38-16N 121-57W 22M
Dec 16, 2018 - 09:03 PM EST / 2018.12.17 0203 UTC
Wind: from the ESE (110 degrees) at 5 MPH (4 KT):0
Visibility: 5 mile(s):0
Sky conditions: overcast
Weather: light rain; mist
Temperature: 51 F (11 C)
Dew Point: 51 F (11 C)
Relative Humidity: 100%
Pressure (altimeter): 30.03 in. Hg (1016 hPa)
ob: KSUU 170203Z AUTO 11004KT 5SM -RA BR BKN021 OVC075 11/11 A3003 RMK AO2 CIG 021V075 BKN V SCT CIG 016 RWY03L SLP176
cycle: 2

Station Type Date Time Source
KSUU TAF 2018/12/16 22:18 UTC NOAA

TAF
AMD KSUU 162202Z 1622/1801 13009KT 8000 -RA FEW040 BKN060 QNH3000INS
BECMG 1708/1709 VRB06KT 6000 BR BKN015 BKN030 QNH2996INS
BECMG 1717/1718 20009KT 9999 NSW BKN020 OVC060 QNH2994INS TX12/1623Z TN04/1712Z


Example: see airport list